Time,TemperatureF,DewpointF,PressureIn,WindDirection,WindDirectionDegrees,WindSpeedMPH,WindSpeedGustMPH,Humidity,HourlyPrecipIn,Conditions,Clouds,dailyrainin,SoftwareType,DateUTC
2013-02-25 00:02:00,31.0,26.0,30.09,NNE,33,0.0,0.0,83,0.00,,,0.00,,2013-02-25 06:02:00,
2013-02-25 00:11:00,31.0,26.0,30.09,NNE,33,0.0,0.0,83,0.00,,,0.00,,2013-02-25 06:11:00,
2013-02-25 00:21:00,31.0,26.0,30.09,NNE,33,0.0,0.0,83,0.00,,,0.00,,2013-02-25 06:21:00,
2013-02-25 00:31:00,31.0,26.0,30.09,NNE,33,0.0,0.0,83,0.00,,,0.00,,2013-02-25 06:31:00,
2013-02-25 00:41:00,31.0,26.0,30.09,NNE,33,0.0,0.0,83,0.00,,,0.00,,2013-02-25 06:41:00,
2013-02-25 00:52:00,30.0,25.0,30.09,NNE,33,0.0,0.0,83,0.00,,,0.00,,2013-02-25 06:52:00,
2013-02-25 01:01:00,30.0,26.0,30.08,NNE,33,0.0,0.0,84,0.00,,,0.00,,2013-02-25 07:01:00,
2013-02-25 01:11:00,30.0,26.0,30.09,NNE,33,0.0,0.0,84,0.00,,,0.00,,2013-02-25 07:11:00,
2013-02-25 01:21:00,30.0,26.0,30.09,NNE,33,0.0,0.0,84,0.00,,,0.00,,2013-02-25 07:21:00,
2013-02-25 01:31:00,30.0,26.0,30.09,NNE,33,1.0,1.0,84,0.00,,,0.00,,2013-02-25 07:31:00,
2013-02-25 01:41:00,30.0,26.0,30.09,NNE,33,1.0,1.0,84,0.00,,,0.00,,2013-02-25 07:41:00,
2013-02-25 01:51:00,30.0,26.0,30.09,NNE,33,0.0,0.0,84,0.00,,,0.00,,2013-02-25 07:51:00,
2013-02-25 02:01:00,30.0,26.0,30.09,NNE,33,0.0,0.0,84,0.00,,,0.00,,2013-02-25 08:01:00,
2013-02-25 02:11:00,30.0,26.0,30.10,NNE,33,0.0,0.0,84,0.00,,,0.00,,2013-02-25 08:11:00,
2013-02-25 02:21:00,30.0,26.0,30.10,NNE,33,0.0,0.0,84,0.00,,,0.00,,2013-02-25 08:21:00,
2013-02-25 02:32:00,30.0,26.0,30.10,NNE,33,0.0,0.0,84,0.00,,,0.00,,2013-02-25 08:32:00,
2013-02-25 02:41:00,30.0,26.0,30.10,NNE,33,0.0,0.0,84,0.00,,,0.00,,2013-02-25 08:41:00,
2013-02-25 02:52:00,30.0,26.0,30.10,NNE,33,0.0,0.0,84,0.00,,,0.00,,2013-02-25 08:52:00,
2013-02-25 03:01:00,30.0,26.0,30.10,NNE,33,0.0,0.0,84,0.00,,,0.00,,2013-02-25 09:01:00,
2013-02-25 03:12:00,30.0,26.0,30.10,NNE,33,0.0,0.0,84,0.00,,,0.00,,2013-02-25 09:12:00,
2013-02-25 03:21:00,30.0,26.0,30.10,NNE,33,0.0,0.0,84,0.00,,,0.00,,2013-02-25 09:21:00,
2013-02-25 03:32:00,30.0,26.0,30.10,NNE,33,0.0,0.0,84,0.00,,,0.00,,2013-02-25 09:32:00,
2013-02-25 09:02:00,36.0,27.0,30.09,South,178,3.0,3.0,70,0.00,,,0.00,,2013-02-25 15:02:00,
2013-02-25 09:11:00,36.0,27.0,30.09,South,178,3.0,3.0,70,0.00,,,0.00,,2013-02-25 15:11:00,
2013-02-25 09:21:00,37.0,28.0,30.09,NE,54,3.0,3.0,70,0.00,,,0.00,,2013-02-25 15:21:00,
2013-02-25 09:32:00,38.0,29.0,30.09,ENE,70,3.0,3.0,69,0.00,,,0.00,,2013-02-25 15:32:00,
2013-02-25 09:41:00,38.0,29.0,30.09,ENE,70,3.0,3.0,69,0.00,,,0.00,,2013-02-25 15:41:00,
2013-02-25 09:51:00,38.0,28.0,30.08,ENE,57,3.0,3.0,68,0.00,,,0.00,,2013-02-25 15:51:00,
2013-02-25 10:02:00,40.0,29.0,30.08,ENE,61,2.0,3.0,65,0.00,,,0.00,,2013-02-25 16:02:00,
2013-02-25 10:11:00,40.0,29.0,30.08,ENE,61,2.0,3.0,65,0.00,,,0.00,,2013-02-25 16:11:00,
2013-02-25 10:21:00,40.0,29.0,30.07,ENE,63,4.0,5.0,64,0.00,,,0.00,,2013-02-25 16:21:00,
2013-02-25 10:32:00,42.0,30.0,30.06,NE,46,5.0,9.0,62,0.00,,,0.00,,2013-02-25 16:32:00,
2013-02-25 10:42:00,42.0,30.0,30.06,NE,46,5.0,9.0,62,0.00,,,0.00,,2013-02-25 16:42:00,
2013-02-25 10:51:00,43.0,30.0,30.06,ENE,72,3.0,4.0,59,0.00,,,0.00,,2013-02-25 16:51:00,
2013-02-25 11:01:00,44.0,29.0,30.05,SSE,158,2.0,3.0,56,0.00,,,0.00,,2013-02-25 17:01:00,
2013-02-25 11:11:00,44.0,29.0,30.05,SSE,158,2.0,3.0,56,0.00,,,0.00,,2013-02-25 17:11:00,
2013-02-25 11:21:00,45.0,31.0,30.04,NNE,30,6.0,6.0,57,0.00,,,0.00,,2013-02-25 17:21:00,
2013-02-25 11:32:00,45.0,30.0,30.03,ESE,113,8.0,8.0,55,0.00,,,0.00,,2013-02-25 17:32:00,
2013-02-25 11:41:00,45.0,30.0,30.03,ESE,113,8.0,8.0,55,0.00,,,0.00,,2013-02-25 17:41:00,
2013-02-25 11:52:00,46.0,30.0,30.02,NE,49,4.0,5.0,53,0.00,,,0.00,,2013-02-25 17:52:00,
2013-02-25 12:01:00,46.0,30.0,30.02,ENE,61,5.0,9.0,53,0.00,,,0.00,,2013-02-25 18:01:00,
2013-02-25 12:12:00,46.0,30.0,30.02,ENE,61,5.0,9.0,53,0.00,,,0.00,,2013-02-25 18:12:00,
2013-02-25 12:21:00,47.0,32.0,30.01,ENE,59,8.0,10.0,55,0.00,,,0.00,,2013-02-25 18:21:00,
2013-02-25 12:32:00,48.0,31.0,29.99,ENE,66,4.0,6.0,51,0.00,,,0.00,,2013-02-25 18:32:00,
2013-02-25 12:41:00,48.0,31.0,29.99,ENE,66,4.0,6.0,51,0.00,,,0.00,,2013-02-25 18:41:00,
2013-02-25 12:51:00,48.0,32.0,29.99,NE,44,6.0,10.0,53,0.00,,,0.00,,2013-02-25 18:51:00,
2013-02-25 13:01:00,49.0,31.0,29.98,ENE,60,5.0,11.0,49,0.00,,,0.00,,2013-02-25 19:01:00,
2013-02-25 13:11:00,49.0,31.0,29.98,ENE,60,5.0,11.0,49,0.00,,,0.00,,2013-02-25 19:11:00,
2013-02-25 13:21:00,48.0,30.0,29.96,NE,55,3.0,9.0,50,0.00,,,0.00,,2013-02-25 19:21:00,
2013-02-25 13:31:00,49.0,31.0,29.95,ENE,59,6.0,6.0,49,0.00,,,0.00,,2013-02-25 19:31:00,
2013-02-25 13:41:00,49.0,31.0,29.95,ENE,59,6.0,6.0,49,0.00,,,0.00,,2013-02-25 19:41:00,
2013-02-25 13:52:00,48.0,30.0,29.94,ENE,68,2.0,3.0,50,0.00,,,0.00,,2013-02-25 19:52:00,
2013-02-25 14:01:00,49.0,30.0,29.93,ENE,71,3.0,8.0,48,0.00,,,0.00,,2013-02-25 20:01:00,
2013-02-25 14:11:00,49.0,30.0,29.93,ENE,71,3.0,8.0,48,0.00,,,0.00,,2013-02-25 20:11:00,
2013-02-25 14:21:00,49.0,30.0,29.92,NE,51,3.0,8.0,48,0.00,,,0.00,,2013-02-25 20:21:00,
2013-02-25 14:32:00,49.0,30.0,29.90,ENE,64,6.0,6.0,48,0.00,,,0.00,,2013-02-25 20:32:00,
2013-02-25 14:41:00,49.0,30.0,29.90,ENE,64,6.0,6.0,48,0.00,,,0.00,,2013-02-25 20:41:00,
2013-02-25 14:52:00,49.0,30.0,29.90,ENE,65,4.0,10.0,48,0.00,,,0.00,,2013-02-25 20:52:00,
2013-02-25 15:01:00,49.0,29.0,29.90,NE,55,3.0,6.0,46,0.00,,,0.00,,2013-02-25 21:01:00,
2013-02-25 15:11:00,49.0,29.0,29.90,NE,55,3.0,6.0,46,0.00,,,0.00,,2013-02-25 21:11:00,
2013-02-25 15:21:00,49.0,29.0,29.90,NE,34,3.0,9.0,46,0.00,,,0.00,,2013-02-25 21:21:00,
2013-02-25 15:32:00,50.0,31.0,29.90,NE,54,3.0,3.0,48,0.00,,,0.00,,2013-02-25 21:32:00,
2013-02-25 15:42:00,50.0,31.0,29.90,NE,54,3.0,3.0,48,0.00,,,0.00,,2013-02-25 21:42:00,
2013-02-25 15:51:00,50.0,31.0,29.88,ENE,71,3.0,5.0,47,0.00,,,0.00,,2013-02-25 21:51:00,
2013-02-25 16:01:00,49.0,30.0,29.87,NE,53,9.0,9.0,48,0.00,,,0.00,,2013-02-25 22:01:00,
2013-02-25 16:11:00,49.0,30.0,29.87,NE,53,9.0,9.0,48,0.00,,,0.00,,2013-02-25 22:11:00,
2013-02-25 16:21:00,49.0,30.0,29.87,ENE,57,6.0,8.0,47,0.00,,,0.00,,2013-02-25 22:21:00,
2013-02-25 16:32:00,48.0,29.0,29.85,NE,52,5.0,8.0,47,0.00,,,0.00,,2013-02-25 22:32:00,
2013-02-25 16:42:00,48.0,29.0,29.85,NE,52,5.0,8.0,47,0.00,,,0.00,,2013-02-25 22:42:00,
2013-02-25 16:51:00,48.0,29.0,29.87,ENE,70,3.0,5.0,48,0.00,,,0.00,,2013-02-25 22:51:00,
2013-02-25 17:01:00,48.0,29.0,29.84,NE,55,5.0,11.0,48,0.00,,,0.00,,2013-02-25 23:01:00,
2013-02-25 17:11:00,48.0,29.0,29.84,NE,55,5.0,11.0,48,0.00,,,0.00,,2013-02-25 23:11:00,
2013-02-25 17:22:00,48.0,29.0,29.82,NE,47,4.0,7.0,48,0.00,,,0.00,,2013-02-25 23:22:00,
2013-02-25 17:31:00,47.0,28.0,29.82,ENE,57,11.0,11.0,48,0.00,,,0.00,,2013-02-25 23:31:00,
2013-02-25 17:41:00,47.0,28.0,29.82,ENE,57,11.0,11.0,48,0.00,,,0.00,,2013-02-25 23:41:00,
2013-02-25 17:52:00,47.0,28.0,29.80,NE,35,8.0,8.0,48,0.00,,,0.00,,2013-02-25 23:52:00,
2013-02-25 18:01:00,46.0,28.0,29.81,NE,51,5.0,10.0,50,0.00,,,0.00,,2013-02-26 00:01:00,
2013-02-25 18:12:00,46.0,28.0,29.81,NE,51,5.0,10.0,50,0.00,,,0.00,,2013-02-26 00:12:00,
2013-02-25 18:22:00,46.0,29.0,29.79,ENE,70,3.0,8.0,51,0.00,,,0.00,,2013-02-26 00:22:00,
2013-02-25 18:32:00,46.0,29.0,29.81,ENE,66,3.0,10.0,51,0.00,,,0.00,,2013-02-26 00:32:00,
2013-02-25 18:42:00,46.0,29.0,29.81,ENE,66,3.0,10.0,51,0.00,,,0.00,,2013-02-26 00:42:00,
2013-02-25 18:51:00,46.0,29.0,29.79,NNE,32,6.0,9.0,51,0.00,,,0.00,,2013-02-26 00:51:00,
2013-02-25 19:02:00,46.0,29.0,29.81,NE,41,3.0,4.0,51,0.00,,,0.00,,2013-02-26 01:02:00,
2013-02-25 19:11:00,46.0,29.0,29.81,NE,41,3.0,4.0,51,0.00,,,0.00,,2013-02-26 01:11:00,
2013-02-25 19:21:00,46.0,28.0,29.80,NE,45,5.0,8.0,50,0.00,,,0.00,,2013-02-26 01:21:00,
2013-02-25 19:31:00,45.0,28.0,29.81,NE,51,3.0,9.0,52,0.00,,,0.00,,2013-02-26 01:31:00,
2013-02-25 19:41:00,45.0,28.0,29.81,NE,51,3.0,9.0,52,0.00,,,0.00,,2013-02-26 01:41:00,
2013-02-25 19:51:00,45.0,28.0,29.80,NE,40,5.0,10.0,51,0.00,,,0.00,,2013-02-26 01:51:00,
2013-02-25 20:01:00,45.0,29.0,29.79,ENE,58,4.0,10.0,53,0.00,,,0.00,,2013-02-26 02:01:00,
2013-02-25 20:11:00,45.0,29.0,29.79,ENE,58,4.0,10.0,53,0.00,,,0.00,,2013-02-26 02:11:00,
2013-02-25 20:21:00,45.0,31.0,29.78,ENE,76,4.0,8.0,57,0.00,,,0.00,,2013-02-26 02:21:00,
2013-02-25 20:32:00,44.0,31.0,29.77,NE,48,9.0,11.0,59,0.00,,,0.00,,2013-02-26 02:32:00,
2013-02-25 20:41:00,44.0,31.0,29.77,NE,48,9.0,11.0,59,0.00,,,0.00,,2013-02-26 02:41:00,
2013-02-25 20:52:00,44.0,30.0,29.77,ENE,70,5.0,11.0,58,0.00,,,0.00,,2013-02-26 02:52:00,
2013-02-25 21:02:00,44.0,31.0,29.75,ENE,57,5.0,9.0,61,0.01,,,0.01,,2013-02-26 03:02:00,
2013-02-25 21:11:00,44.0,31.0,29.75,ENE,57,5.0,9.0,61,0.01,,,0.01,,2013-02-26 03:11:00,
2013-02-25 21:21:00,44.0,31.0,29.72,NE,44,9.0,10.0,59,0.01,,,0.01,,2013-02-26 03:21:00,
2013-02-25 21:32:00,44.0,31.0,29.72,ENE,76,10.0,11.0,59,0.01,,,0.01,,2013-02-26 03:32:00,
2013-02-25 21:41:00,44.0,31.0,29.72,ENE,76,10.0,11.0,59,0.01,,,0.01,,2013-02-26 03:41:00,
2013-02-25 21:52:00,43.0,30.0,29.70,NE,55,9.0,10.0,60,0.01,,,0.01,,2013-02-26 03:52:00,
2013-02-25 22:01:00,43.0,30.0,29.67,NE,55,8.0,8.0,59,0.00,,,0.01,,2013-02-26 04:01:00,
2013-02-25 22:11:00,43.0,30.0,29.67,NE,55,8.0,8.0,59,0.00,,,0.01,,2013-02-26 04:11:00,
2013-02-25 22:21:00,43.0,30.0,29.67,NE,52,10.0,10.0,59,0.00,,,0.01,,2013-02-26 04:21:00,
2013-02-25 22:32:00,43.0,30.0,29.67,ENE,61,6.0,6.0,59,0.00,,,0.01,,2013-02-26 04:32:00,
2013-02-25 22:42:00,43.0,30.0,29.67,ENE,61,6.0,6.0,59,0.00,,,0.01,,2013-02-26 04:42:00,
2013-02-25 22:51:00,43.0,30.0,29.65,ENE,60,3.0,3.0,59,0.00,,,0.01,,2013-02-26 04:51:00,
2013-02-25 23:01:00,43.0,29.0,29.65,ENE,61,8.0,9.0,58,0.00,,,0.01,,2013-02-26 05:01:00,
2013-02-25 23:11:00,43.0,29.0,29.64,NE,53,3.0,7.0,57,0.00,,,0.01,,2013-02-26 05:11:00,
2013-02-25 23:21:00,43.0,29.0,29.64,NE,53,3.0,7.0,57,0.00,,,0.01,,2013-02-26 05:21:00,
2013-02-25 23:31:00,43.0,29.0,29.61,NE,49,3.0,9.0,57,0.00,,,0.01,,2013-02-26 05:31:00,
2013-02-25 23:42:00,43.0,29.0,29.61,NE,49,3.0,9.0,57,0.00,,,0.01,,2013-02-26 05:42:00,
2013-02-25 23:52:00,43.0,29.0,29.60,NE,55,9.0,9.0,57,0.00,,,0.01,,2013-02-26 05:52:00,